sensor_id;sensor_type;location;lat;lon;timestamp;temperature;humidity
9776;DHT22;4927;52.472;13.108;2023-10-08T00:00:47;11.80;99.90
9776;DHT22;4927;52.472;13.108;2023-10-08T00:01:48;11.80;99.90
9776;DHT22;4927;52.472;13.108;2023-10-08T00:02:50;11.80;99.90
9776;DHT22;4927;52.472;13.108;2023-10-08T00:03:52;11.80;99.90
9776;DHT22;4927;52.472;13.108;2023-10-08T00:04:54;11.80;99.90
9776;DHT22;4927;52.472;13.108;2023-10-08T00:05:55;11.80;99.90
9776;DHT22;4927;52.472;13.108;2023-10-08T00:06:57;11.80;99.90
9776;DHT22;4927;52.472;13.108;2023-10-08T00:07:59;11.80;99.90
9776;DHT22;4927;52.472;13.108;2023-10-08T00:09:01;11.80;99.90
9776;DHT22;4927;52.472;13.108;2023-10-08T00:10:04;11.80;99.90
9776;DHT22;4927;52.472;13.108;2023-10-08T00:11:07;11.80;99.90
9776;DHT22;4927;52.472;13.108;2023-10-08T00:12:08;11.80;99.90
9776;DHT22;4927;52.472;13.108;2023-10-08T00:13:10;11.80;99.90
9776;DHT22;4927;52.472;13.108;2023-10-08T00:14:12;11.80;99.90
9776;DHT22;4927;52.472;13.108;2023-10-08T00:15:14;11.80;99.90
9776;DHT22;4927;52.472;13.108;2023-10-08T00:16:16;11.80;99.90
9776;DHT22;4927;52.472;13.108;2023-10-08T00:17:18;11.80;99.90
9776;DHT22;4927;52.472;13.108;2023-10-08T00:18:20;11.80;99.90
9776;DHT22;4927;52.472;13.108;2023-10-08T00:19:21;11.80;99.90
9776;DHT22;4927;52.472;13.108;2023-10-08T00:20:23;11.80;99.90
9776;DHT22;4927;52.472;13.108;2023-10-08T00:21:27;11.80;99.90
9776;DHT22;4927;52.472;13.108;2023-10-08T00:22:29;11.80;99.90
9776;DHT22;4927;52.472;13.108;2023-10-08T00:23:31;11.80;99.90
9776;DHT22;4927;52.472;13.108;2023-10-08T00:24:32;11.80;99.90
9776;DHT22;4927;52.472;13.108;2023-10-08T00:25:35;11.80;99.90
9776;DHT22;4927;52.472;13.108;2023-10-08T00:26:37;11.80;99.90
9776;DHT22;4927;52.472;13.108;2023-10-08T00:27:39;11.80;99.90
9776;DHT22;4927;52.472;13.108;2023-10-08T00:28:40;11.80;99.90
9776;DHT22;4927;52.472;13.108;2023-10-08T00:29:42;11.80;99.90
9776;DHT22;4927;52.472;13.108;2023-10-08T00:30:44;11.80;99.90
9776;DHT22;4927;52.472;13.108;2023-10-08T00:31:46;11.80;99.90
9776;DHT22;4927;52.472;13.108;2023-10-08T00:32:47;11.80;99.90
9776;DHT22;4927;52.472;13.108;2023-10-08T00:33:49;11.80;99.90
9776;DHT22;4927;52.472;13.108;2023-10-08T00:34:51;11.80;99.90
9776;DHT22;4927;52.472;13.108;2023-10-08T00:35:53;11.70;99.90
9776;DHT22;4927;52.472;13.108;2023-10-08T00:36:55;11.80;99.90
9776;DHT22;4927;52.472;13.108;2023-10-08T00:37:57;11.70;99.90
9776;DHT22;4927;52.472;13.108;2023-10-08T00:38:59;11.70;99.90
9776;DHT22;4927;52.472;13.108;2023-10-08T00:40:02;11.70;99.90
9776;DHT22;4927;52.472;13.108;2023-10-08T00:41:04;11.70;99.90
9776;DHT22;4927;52.472;13.108;2023-10-08T00:42:06;11.70;99.90
9776;DHT22;4927;52.472;13.108;2023-10-08T00:43:08;11.70;99.90
9776;DHT22;4927;52.472;13.108;2023-10-08T00:44:12;11.70;99.90
9776;DHT22;4927;52.472;13.108;2023-10-08T00:45:13;11.70;99.90
9776;DHT22;4927;52.472;13.108;2023-10-08T00:46:15;11.70;99.90
9776;DHT22;4927;52.472;13.108;2023-10-08T00:47:28;11.70;99.90
9776;DHT22;4927;52.472;13.108;2023-10-08T00:48:30;11.70;99.90
9776;DHT22;4927;52.472;13.108;2023-10-08T00:49:32;11.70;99.90
9776;DHT22;4927;52.472;13.108;2023-10-08T00:50:41;11.70;99.90
9776;DHT22;4927;52.472;13.108;2023-10-08T00:51:43;11.70;99.90
9776;DHT22;4927;52.472;13.108;2023-10-08T00:52:46;11.60;99.90
9776;DHT22;4927;52.472;13.108;2023-10-08T00:53:59;11.60;99.90
9776;DHT22;4927;52.472;13.108;2023-10-08T00:55:01;11.60;99.90
9776;DHT22;4927;52.472;13.108;2023-10-08T00:56:10;11.60;99.90
9776;DHT22;4927;52.472;13.108;2023-10-08T00:57:13;11.60;99.90
9776;DHT22;4927;52.472;13.108;2023-10-08T00:58:14;11.60;99.90
9776;DHT22;4927;52.472;13.108;2023-10-08T00:59:16;11.60;99.90
9776;DHT22;4927;52.472;13.108;2023-10-08T01:00:18;11.60;99.90
9776;DHT22;4927;52.472;13.108;2023-10-08T01:01:19;11.60;99.90
9776;DHT22;4927;52.472;13.108;2023-10-08T01:02:24;11.60;99.90
9776;DHT22;4927;52.472;13.108;2023-10-08T01:03:26;11.60;99.90
9776;DHT22;4927;52.472;13.108;2023-10-08T01:04:28;11.60;99.90
9776;DHT22;4927;52.472;13.108;2023-10-08T01:05:30;11.60;99.90
9776;DHT22;4927;52.472;13.108;2023-10-08T01:06:37;11.60;99.90
9776;DHT22;4927;52.472;13.108;2023-10-08T01:07:40;11.60;99.90
9776;DHT22;4927;52.472;13.108;2023-10-08T01:08:41;11.60;99.90
9776;DHT22;4927;52.472;13.108;2023-10-08T01:09:43;11.60;99.90
9776;DHT22;4927;52.472;13.108;2023-10-08T01:10:45;11.60;99.90
9776;DHT22;4927;52.472;13.108;2023-10-08T01:12:06;11.60;99.90
9776;DHT22;4927;52.472;13.108;2023-10-08T01:12:49;11.60;99.90
9776;DHT22;4927;52.472;13.108;2023-10-08T01:14:05;11.60;99.90
9776;DHT22;4927;52.472;13.108;2023-10-08T01:15:08;11.60;99.90
9776;DHT22;4927;52.472;13.108;2023-10-08T01:16:19;11.60;99.90
9776;DHT22;4927;52.472;13.108;2023-10-08T01:17:22;11.60;99.90
9776;DHT22;4927;52.472;13.108;2023-10-08T01:18:26;11.60;99.90
9776;DHT22;4927;52.472;13.108;2023-10-08T01:19:31;11.60;99.90
9776;DHT22;4927;52.472;13.108;2023-10-08T01:20:32;11.60;99.90
9776;DHT22;4927;52.472;13.108;2023-10-08T01:21:35;11.60;99.90
9776;DHT22;4927;52.472;13.108;2023-10-08T01:22:38;11.60;99.90
9776;DHT22;4927;52.472;13.108;2023-10-08T01:23:41;11.60;99.90
9776;DHT22;4927;52.472;13.108;2023-10-08T01:24:43;11.60;99.90
9776;DHT22;4927;52.472;13.108;2023-10-08T01:25:46;11.60;99.90
9776;DHT22;4927;52.472;13.108;2023-10-08T01:26:53;11.60;99.90
9776;DHT22;4927;52.472;13.108;2023-10-08T01:27:56;11.60;99.90
9776;DHT22;4927;52.472;13.108;2023-10-08T01:28:59;11.60;99.90
9776;DHT22;4927;52.472;13.108;2023-10-08T01:30:01;11.60;99.90
9776;DHT22;4927;52.472;13.108;2023-10-08T01:31:06;11.60;99.90
9776;DHT22;4927;52.472;13.108;2023-10-08T01:32:08;11.60;99.90
9776;DHT22;4927;52.472;13.108;2023-10-08T01:33:09;11.60;99.90
9776;DHT22;4927;52.472;13.108;2023-10-08T01:34:12;11.50;99.90
9776;DHT22;4927;52.472;13.108;2023-10-08T01:35:14;11.50;99.90
9776;DHT22;4927;52.472;13.108;2023-10-08T01:36:25;11.50;99.90
9776;DHT22;4927;52.472;13.108;2023-10-08T01:37:27;11.60;99.90
9776;DHT22;4927;52.472;13.108;2023-10-08T01:38:29;11.60;99.90
9776;DHT22;4927;52.472;13.108;2023-10-08T01:39:30;11.50;99.90
9776;DHT22;4927;52.472;13.108;2023-10-08T01:40:32;11.60;99.90
9776;DHT22;4927;52.472;13.108;2023-10-08T01:41:34;11.50;99.90
9776;DHT22;4927;52.472;13.108;2023-10-08T01:42:35;11.60;99.90
9776;DHT22;4927;52.472;13.108;2023-10-08T01:43:38;11.60;99.90
9776;DHT22;4927;52.472;13.108;2023-10-08T01:44:40;11.60;99.90
9776;DHT22;4927;52.472;13.108;2023-10-08T01:45:42;11.50;99.90
9776;DHT22;4927;52.472;13.108;2023-10-08T01:46:43;11.50;99.90
9776;DHT22;4927;52.472;13.108;2023-10-08T01:47:45;11.50;99.90
9776;DHT22;4927;52.472;13.108;2023-10-08T01:48:48;11.50;99.90
9776;DHT22;4927;52.472;13.108;2023-10-08T01:49:49;11.50;99.90
9776;DHT22;4927;52.472;13.108;2023-10-08T01:50:53;11.50;99.90
9776;DHT22;4927;52.472;13.108;2023-10-08T01:51:53;11.50;99.90
9776;DHT22;4927;52.472;13.108;2023-10-08T01:52:55;11.50;99.90
9776;DHT22;4927;52.472;13.108;2023-10-08T01:53:56;11.50;99.90
9776;DHT22;4927;52.472;13.108;2023-10-08T01:54:58;11.50;99.90
9776;DHT22;4927;52.472;13.108;2023-10-08T01:56:00;11.50;99.90
9776;DHT22;4927;52.472;13.108;2023-10-08T01:57:02;11.50;99.90
9776;DHT22;4927;52.472;13.108;2023-10-08T01:58:04;11.60;99.90
9776;DHT22;4927;52.472;13.108;2023-10-08T01:59:09;11.60;99.90
9776;DHT22;4927;52.472;13.108;2023-10-08T02:00:10;11.50;99.90
9776;DHT22;4927;52.472;13.108;2023-10-08T02:01:13;11.50;99.90
9776;DHT22;4927;52.472;13.108;2023-10-08T02:02:15;11.50;99.90
9776;DHT22;4927;52.472;13.108;2023-10-08T02:03:17;11.50;99.90
9776;DHT22;4927;52.472;13.108;2023-10-08T02:04:19;11.50;99.90
9776;DHT22;4927;52.472;13.108;2023-10-08T02:05:21;11.50;99.90
9776;DHT22;4927;52.472;13.108;2023-10-08T02:06:23;11.50;99.90
9776;DHT22;4927;52.472;13.108;2023-10-08T02:07:25;11.50;99.90
9776;DHT22;4927;52.472;13.108;2023-10-08T02:08:27;11.50;99.90
9776;DHT22;4927;52.472;13.108;2023-10-08T02:09:30;11.60;99.90
9776;DHT22;4927;52.472;13.108;2023-10-08T02:10:32;11.50;99.90
9776;DHT22;4927;52.472;13.108;2023-10-08T02:11:41;11.50;99.90
9776;DHT22;4927;52.472;13.108;2023-10-08T02:12:43;11.50;99.90
9776;DHT22;4927;52.472;13.108;2023-10-08T02:13:44;11.50;99.90
9776;DHT22;4927;52.472;13.108;2023-10-08T02:14:47;11.50;99.90
9776;DHT22;4927;52.472;13.108;2023-10-08T02:15:49;11.50;99.90
9776;DHT22;4927;52.472;13.108;2023-10-08T02:16:51;11.50;99.90
9776;DHT22;4927;52.472;13.108;2023-10-08T02:17:53;11.50;99.90
9776;DHT22;4927;52.472;13.108;2023-10-08T02:18:56;11.50;99.90
9776;DHT22;4927;52.472;13.108;2023-10-08T02:19:59;11.50;99.90
9776;DHT22;4927;52.472;13.108;2023-10-08T02:21:00;11.50;99.90
9776;DHT22;4927;52.472;13.108;2023-10-08T02:22:02;11.50;99.90
9776;DHT22;4927;52.472;13.108;2023-10-08T02:23:04;11.50;99.90
9776;DHT22;4927;52.472;13.108;2023-10-08T02:24:06;11.50;99.90
9776;DHT22;4927;52.472;13.108;2023-10-08T02:25:09;11.50;99.90
9776;DHT22;4927;52.472;13.108;2023-10-08T02:26:11;11.50;99.90
9776;DHT22;4927;52.472;13.108;2023-10-08T02:27:13;11.50;99.90
9776;DHT22;4927;52.472;13.108;2023-10-08T02:28:15;11.50;99.90
9776;DHT22;4927;52.472;13.108;2023-10-08T02:29:17;11.50;99.90
9776;DHT22;4927;52.472;13.108;2023-10-08T02:30:19;11.50;99.90
9776;DHT22;4927;52.472;13.108;2023-10-08T02:31:21;11.50;99.90
9776;DHT22;4927;52.472;13.108;2023-10-08T02:32:23;11.50;99.90
9776;DHT22;4927;52.472;13.108;2023-10-08T02:33:26;11.50;99.90
9776;DHT22;4927;52.472;13.108;2023-10-08T02:34:27;11.50;99.90
9776;DHT22;4927;52.472;13.108;2023-10-08T02:35:29;11.50;99.90
9776;DHT22;4927;52.472;13.108;2023-10-08T02:36:31;11.50;99.90
9776;DHT22;4927;52.472;13.108;2023-10-08T02:37:33;11.50;99.90
9776;DHT22;4927;52.472;13.108;2023-10-08T02:38:35;11.50;99.90
9776;DHT22;4927;52.472;13.108;2023-10-08T02:39:36;11.50;99.90
9776;DHT22;4927;52.472;13.108;2023-10-08T02:40:39;11.50;99.90
9776;DHT22;4927;52.472;13.108;2023-10-08T02:41:43;11.50;99.90
9776;DHT22;4927;52.472;13.108;2023-10-08T02:42:44;11.50;99.90
9776;DHT22;4927;52.472;13.108;2023-10-08T02:43:46;11.50;99.90
9776;DHT22;4927;52.472;13.108;2023-10-08T02:44:48;11.50;99.90
9776;DHT22;4927;52.472;13.108;2023-10-08T02:45:50;11.50;99.90
9776;DHT22;4927;52.472;13.108;2023-10-08T02:46:53;11.50;99.90
9776;DHT22;4927;52.472;13.108;2023-10-08T02:47:56;11.50;99.90
9776;DHT22;4927;52.472;13.108;2023-10-08T02:48:58;11.50;99.90
9776;DHT22;4927;52.472;13.108;2023-10-08T02:50:00;11.50;99.90
9776;DHT22;4927;52.472;13.108;2023-10-08T02:51:01;11.50;99.90
9776;DHT22;4927;52.472;13.108;2023-10-08T02:52:04;11.50;99.90
9776;DHT22;4927;52.472;13.108;2023-10-08T02:53:06;11.50;99.90
9776;DHT22;4927;52.472;13.108;2023-10-08T02:54:11;11.50;99.90
9776;DHT22;4927;52.472;13.108;2023-10-08T02:55:19;11.50;99.90
9776;DHT22;4927;52.472;13.108;2023-10-08T02:56:25;11.50;99.90
9776;DHT22;4927;52.472;13.108;2023-10-08T02:57:27;11.50;99.90
9776;DHT22;4927;52.472;13.108;2023-10-08T02:58:30;11.50;99.90
9776;DHT22;4927;52.472;13.108;2023-10-08T02:59:32;11.40;99.90
9776;DHT22;4927;52.472;13.108;2023-10-08T03:00:46;11.40;99.90
9776;DHT22;4927;52.472;13.108;2023-10-08T03:01:49;11.40;99.90
9776;DHT22;4927;52.472;13.108;2023-10-08T03:02:51;11.40;99.90
9776;DHT22;4927;52.472;13.108;2023-10-08T03:03:53;11.40;99.90
9776;DHT22;4927;52.472;13.108;2023-10-08T03:04:55;11.40;99.90
9776;DHT22;4927;52.472;13.108;2023-10-08T03:05:57;11.40;99.90
9776;DHT22;4927;52.472;13.108;2023-10-08T03:06:59;11.40;99.90
9776;DHT22;4927;52.472;13.108;2023-10-08T03:08:01;11.40;99.90
9776;DHT22;4927;52.472;13.108;2023-10-08T03:09:03;11.40;99.90
9776;DHT22;4927;52.472;13.108;2023-10-08T03:10:06;11.40;99.90
9776;DHT22;4927;52.472;13.108;2023-10-08T03:11:09;11.40;99.90
9776;DHT22;4927;52.472;13.108;2023-10-08T03:12:10;11.40;99.90
9776;DHT22;4927;52.472;13.108;2023-10-08T03:13:12;11.40;99.90
9776;DHT22;4927;52.472;13.108;2023-10-08T03:14:14;11.40;99.90
9776;DHT22;4927;52.472;13.108;2023-10-08T03:15:15;11.40;99.90
9776;DHT22;4927;52.472;13.108;2023-10-08T03:16:18;11.40;99.90
9776;DHT22;4927;52.472;13.108;2023-10-08T03:17:20;11.40;99.90
9776;DHT22;4927;52.472;13.108;2023-10-08T03:18:22;11.40;99.90
9776;DHT22;4927;52.472;13.108;2023-10-08T03:19:23;11.40;99.90
9776;DHT22;4927;52.472;13.108;2023-10-08T03:20:25;11.40;99.90
9776;DHT22;4927;52.472;13.108;2023-10-08T03:21:29;11.40;99.90
9776;DHT22;4927;52.472;13.108;2023-10-08T03:22:35;11.40;99.90
9776;DHT22;4927;52.472;13.108;2023-10-08T03:23:37;11.40;99.90
9776;DHT22;4927;52.472;13.108;2023-10-08T03:24:39;11.40;99.90
9776;DHT22;4927;52.472;13.108;2023-10-08T03:25:41;11.40;99.90
9776;DHT22;4927;52.472;13.108;2023-10-08T03:26:43;11.40;99.90
9776;DHT22;4927;52.472;13.108;2023-10-08T03:27:45;11.40;99.90
9776;DHT22;4927;52.472;13.108;2023-10-08T03:28:47;11.40;99.90
9776;DHT22;4927;52.472;13.108;2023-10-08T03:29:49;11.40;99.90
9776;DHT22;4927;52.472;13.108;2023-10-08T03:30:52;11.40;99.90
9776;DHT22;4927;52.472;13.108;2023-10-08T03:31:53;11.30;99.90
9776;DHT22;4927;52.472;13.108;2023-10-08T03:32:55;11.30;99.90
9776;DHT22;4927;52.472;13.108;2023-10-08T03:33:57;11.40;99.90
9776;DHT22;4927;52.472;13.108;2023-10-08T03:34:59;11.40;99.90
9776;DHT22;4927;52.472;13.108;2023-10-08T03:36:01;11.30;99.90
9776;DHT22;4927;52.472;13.108;2023-10-08T03:37:02;11.30;99.90
9776;DHT22;4927;52.472;13.108;2023-10-08T03:38:07;11.30;99.90
9776;DHT22;4927;52.472;13.108;2023-10-08T03:39:24;11.30;99.90
9776;DHT22;4927;52.472;13.108;2023-10-08T03:40:26;11.30;99.90
9776;DHT22;4927;52.472;13.108;2023-10-08T03:41:29;11.30;99.90
9776;DHT22;4927;52.472;13.108;2023-10-08T03:42:31;11.30;99.90
9776;DHT22;4927;52.472;13.108;2023-10-08T03:43:36;11.30;99.90
9776;DHT22;4927;52.472;13.108;2023-10-08T03:44:37;11.30;99.90
9776;DHT22;4927;52.472;13.108;2023-10-08T03:45:40;11.30;99.90
9776;DHT22;4927;52.472;13.108;2023-10-08T03:46:47;11.30;99.90
9776;DHT22;4927;52.472;13.108;2023-10-08T03:47:49;11.30;99.90
9776;DHT22;4927;52.472;13.108;2023-10-08T03:48:51;11.20;99.90
9776;DHT22;4927;52.472;13.108;2023-10-08T03:49:54;11.30;99.90
9776;DHT22;4927;52.472;13.108;2023-10-08T03:50:56;11.20;99.90
9776;DHT22;4927;52.472;13.108;2023-10-08T03:51:58;11.20;99.90
9776;DHT22;4927;52.472;13.108;2023-10-08T03:53:00;11.20;99.90
9776;DHT22;4927;52.472;13.108;2023-10-08T03:54:02;11.20;99.90
9776;DHT22;4927;52.472;13.108;2023-10-08T03:55:08;11.20;99.90
9776;DHT22;4927;52.472;13.108;2023-10-08T03:56:14;11.20;99.90
9776;DHT22;4927;52.472;13.108;2023-10-08T03:57:16;11.20;99.90
9776;DHT22;4927;52.472;13.108;2023-10-08T03:58:20;11.20;99.90
9776;DHT22;4927;52.472;13.108;2023-10-08T03:59:28;11.20;99.90
9776;DHT22;4927;52.472;13.108;2023-10-08T04:00:31;11.20;99.90
9776;DHT22;4927;52.472;13.108;2023-10-08T04:01:33;11.20;99.90
9776;DHT22;4927;52.472;13.108;2023-10-08T04:02:36;11.20;99.90
9776;DHT22;4927;52.472;13.108;2023-10-08T04:03:41;11.20;99.90
9776;DHT22;4927;52.472;13.108;2023-10-08T04:04:49;11.20;99.90
9776;DHT22;4927;52.472;13.108;2023-10-08T04:05:52;11.20;99.90
9776;DHT22;4927;52.472;13.108;2023-10-08T04:07:00;11.20;99.90
9776;DHT22;4927;52.472;13.108;2023-10-08T04:08:02;11.20;99.90
9776;DHT22;4927;52.472;13.108;2023-10-08T04:09:06;11.20;99.90
9776;DHT22;4927;52.472;13.108;2023-10-08T04:10:12;11.20;99.90
9776;DHT22;4927;52.472;13.108;2023-10-08T04:11:21;11.20;99.90
9776;DHT22;4927;52.472;13.108;2023-10-08T04:12:30;11.20;99.90
9776;DHT22;4927;52.472;13.108;2023-10-08T04:13:32;11.20;99.90
9776;DHT22;4927;52.472;13.108;2023-10-08T04:14:34;11.20;99.90
9776;DHT22;4927;52.472;13.108;2023-10-08T04:15:36;11.20;99.90
9776;DHT22;4927;52.472;13.108;2023-10-08T04:16:37;11.20;99.90
9776;DHT22;4927;52.472;13.108;2023-10-08T04:17:39;11.20;99.90
9776;DHT22;4927;52.472;13.108;2023-10-08T04:18:46;11.20;99.90
9776;DHT22;4927;52.472;13.108;2023-10-08T04:19:46;11.20;99.90
9776;DHT22;4927;52.472;13.108;2023-10-08T04:20:48;11.20;99.90
9776;DHT22;4927;52.472;13.108;2023-10-08T04:21:57;11.20;99.90
9776;DHT22;4927;52.472;13.108;2023-10-08T04:23:00;11.20;99.90
9776;DHT22;4927;52.472;13.108;2023-10-08T04:24:02;11.20;99.90
9776;DHT22;4927;52.472;13.108;2023-10-08T04:25:05;11.20;99.90
9776;DHT22;4927;52.472;13.108;2023-10-08T04:26:08;11.20;99.90
9776;DHT22;4927;52.472;13.108;2023-10-08T04:27:09;11.20;99.90
9776;DHT22;4927;52.472;13.108;2023-10-08T04:28:11;11.20;99.90
9776;DHT22;4927;52.472;13.108;2023-10-08T04:29:14;11.20;99.90
9776;DHT22;4927;52.472;13.108;2023-10-08T04:30:16;11.20;99.90
9776;DHT22;4927;52.472;13.108;2023-10-08T04:31:18;11.10;99.90
9776;DHT22;4927;52.472;13.108;2023-10-08T04:32:20;11.10;99.90
9776;DHT22;4927;52.472;13.108;2023-10-08T04:33:22;11.10;99.90
9776;DHT22;4927;52.472;13.108;2023-10-08T04:34:23;11.10;99.90
9776;DHT22;4927;52.472;13.108;2023-10-08T04:35:25;11.10;99.90
9776;DHT22;4927;52.472;13.108;2023-10-08T04:36:27;11.10;99.90
9776;DHT22;4927;52.472;13.108;2023-10-08T04:37:29;11.10;99.90
9776;DHT22;4927;52.472;13.108;2023-10-08T04:38:31;11.10;99.90
9776;DHT22;4927;52.472;13.108;2023-10-08T04:39:33;11.10;99.90
9776;DHT22;4927;52.472;13.108;2023-10-08T04:40:35;11.10;99.90
9776;DHT22;4927;52.472;13.108;2023-10-08T04:41:37;11.10;99.90
9776;DHT22;4927;52.472;13.108;2023-10-08T04:42:39;11.00;99.90
9776;DHT22;4927;52.472;13.108;2023-10-08T04:43:41;11.00;99.90
9776;DHT22;4927;52.472;13.108;2023-10-08T04:44:43;11.00;99.90
9776;DHT22;4927;52.472;13.108;2023-10-08T04:45:45;11.00;99.90
9776;DHT22;4927;52.472;13.108;2023-10-08T04:46:46;11.00;99.90
9776;DHT22;4927;52.472;13.108;2023-10-08T04:47:49;11.00;99.90
9776;DHT22;4927;52.472;13.108;2023-10-08T04:48:51;11.00;99.90
9776;DHT22;4927;52.472;13.108;2023-10-08T04:49:53;11.00;99.90
9776;DHT22;4927;52.472;13.108;2023-10-08T04:50:55;11.00;99.90
9776;DHT22;4927;52.472;13.108;2023-10-08T04:52:01;10.90;99.90
9776;DHT22;4927;52.472;13.108;2023-10-08T04:53:02;10.90;99.90
9776;DHT22;4927;52.472;13.108;2023-10-08T04:54:04;10.90;99.90
9776;DHT22;4927;52.472;13.108;2023-10-08T04:55:06;10.90;99.90
9776;DHT22;4927;52.472;13.108;2023-10-08T04:56:09;10.90;99.90
9776;DHT22;4927;52.472;13.108;2023-10-08T04:57:25;10.90;99.90
9776;DHT22;4927;52.472;13.108;2023-10-08T04:58:27;10.90;99.90
9776;DHT22;4927;52.472;13.108;2023-10-08T04:59:30;10.90;99.90
9776;DHT22;4927;52.472;13.108;2023-10-08T05:00:33;10.90;99.90
9776;DHT22;4927;52.472;13.108;2023-10-08T05:01:42;10.80;99.90
9776;DHT22;4927;52.472;13.108;2023-10-08T05:02:49;10.80;99.90
9776;DHT22;4927;52.472;13.108;2023-10-08T05:03:51;10.80;99.90
9776;DHT22;4927;52.472;13.108;2023-10-08T05:05:10;10.80;99.90
9776;DHT22;4927;52.472;13.108;2023-10-08T05:06:29;10.80;99.90
9776;DHT22;4927;52.472;13.108;2023-10-08T05:07:51;10.80;99.90
9776;DHT22;4927;52.472;13.108;2023-10-08T05:08:56;10.70;99.90
9776;DHT22;4927;52.472;13.108;2023-10-08T05:10:00;10.70;99.90
9776;DHT22;4927;52.472;13.108;2023-10-08T05:11:14;10.70;99.90
9776;DHT22;4927;52.472;13.108;2023-10-08T05:12:16;10.70;99.90
9776;DHT22;4927;52.472;13.108;2023-10-08T05:13:25;10.70;99.90
9776;DHT22;4927;52.472;13.108;2023-10-08T05:14:27;10.70;99.90
9776;DHT22;4927;52.472;13.108;2023-10-08T05:15:30;10.70;99.90
9776;DHT22;4927;52.472;13.108;2023-10-08T05:16:34;10.70;99.90
9776;DHT22;4927;52.472;13.108;2023-10-08T05:17:37;10.60;99.90
9776;DHT22;4927;52.472;13.108;2023-10-08T05:18:39;10.60;99.90
9776;DHT22;4927;52.472;13.108;2023-10-08T05:19:47;10.60;99.90
9776;DHT22;4927;52.472;13.108;2023-10-08T05:20:50;10.60;99.90
9776;DHT22;4927;52.472;13.108;2023-10-08T05:22:08;10.60;99.90
9776;DHT22;4927;52.472;13.108;2023-10-08T05:23:17;10.60;99.90
9776;DHT22;4927;52.472;13.108;2023-10-08T05:24:22;10.60;99.90
9776;DHT22;4927;52.472;13.108;2023-10-08T05:25:24;10.60;99.90
9776;DHT22;4927;52.472;13.108;2023-10-08T05:26:26;10.60;99.90
9776;DHT22;4927;52.472;13.108;2023-10-08T05:27:28;10.60;99.90
9776;DHT22;4927;52.472;13.108;2023-10-08T05:28:36;10.60;99.90
9776;DHT22;4927;52.472;13.108;2023-10-08T05:29:38;10.60;99.90
9776;DHT22;4927;52.472;13.108;2023-10-08T05:30:41;10.60;99.90
9776;DHT22;4927;52.472;13.108;2023-10-08T05:31:43;10.60;99.90
9776;DHT22;4927;52.472;13.108;2023-10-08T05:32:48;10.60;99.90
9776;DHT22;4927;52.472;13.108;2023-10-08T05:33:57;10.60;99.90
9776;DHT22;4927;52.472;13.108;2023-10-08T05:35:11;10.60;99.90
9776;DHT22;4927;52.472;13.108;2023-10-08T05:36:19;10.60;99.90
9776;DHT22;4927;52.472;13.108;2023-10-08T05:37:21;10.60;99.90
9776;DHT22;4927;52.472;13.108;2023-10-08T05:38:29;10.60;99.90
9776;DHT22;4927;52.472;13.108;2023-10-08T05:39:46;10.60;99.90
9776;DHT22;4927;52.472;13.108;2023-10-08T05:40:48;10.60;99.90
9776;DHT22;4927;52.472;13.108;2023-10-08T05:41:55;10.60;99.90
9776;DHT22;4927;52.472;13.108;2023-10-08T05:43:13;10.60;99.90
9776;DHT22;4927;52.472;13.108;2023-10-08T05:44:14;10.60;99.90
9776;DHT22;4927;52.472;13.108;2023-10-08T05:45:16;10.60;99.90
9776;DHT22;4927;52.472;13.108;2023-10-08T05:46:18;10.60;99.90
9776;DHT22;4927;52.472;13.108;2023-10-08T05:47:37;10.70;99.90
9776;DHT22;4927;52.472;13.108;2023-10-08T05:48:39;10.70;99.90
9776;DHT22;4927;52.472;13.108;2023-10-08T05:49:41;10.70;99.90
9776;DHT22;4927;52.472;13.108;2023-10-08T05:50:43;10.70;99.90
9776;DHT22;4927;52.472;13.108;2023-10-08T05:51:45;10.70;99.90
9776;DHT22;4927;52.472;13.108;2023-10-08T05:53:03;10.70;99.90
9776;DHT22;4927;52.472;13.108;2023-10-08T05:54:06;10.80;99.90
9776;DHT22;4927;52.472;13.108;2023-10-08T05:55:08;10.80;99.90
9776;DHT22;4927;52.472;13.108;2023-10-08T05:56:11;10.80;99.90
9776;DHT22;4927;52.472;13.108;2023-10-08T05:57:17;10.80;99.90
9776;DHT22;4927;52.472;13.108;2023-10-08T05:58:20;10.90;99.90
9776;DHT22;4927;52.472;13.108;2023-10-08T05:59:29;10.80;99.90
9776;DHT22;4927;52.472;13.108;2023-10-08T06:00:31;10.80;99.90
9776;DHT22;4927;52.472;13.108;2023-10-08T06:01:41;10.90;99.90
9776;DHT22;4927;52.472;13.108;2023-10-08T06:02:43;10.90;99.90
9776;DHT22;4927;52.472;13.108;2023-10-08T06:04:00;10.90;99.90
9776;DHT22;4927;52.472;13.108;2023-10-08T06:05:03;10.90;99.90
9776;DHT22;4927;52.472;13.108;2023-10-08T06:06:07;10.90;99.90
9776;DHT22;4927;52.472;13.108;2023-10-08T06:07:27;10.90;99.90
9776;DHT22;4927;52.472;13.108;2023-10-08T06:08:29;10.90;99.90
9776;DHT22;4927;52.472;13.108;2023-10-08T06:09:31;10.90;99.90
9776;DHT22;4927;52.472;13.108;2023-10-08T06:10:37;11.00;99.90
9776;DHT22;4927;52.472;13.108;2023-10-08T06:11:49;11.00;99.90
9776;DHT22;4927;52.472;13.108;2023-10-08T06:12:58;11.00;99.90
9776;DHT22;4927;52.472;13.108;2023-10-08T06:14:03;11.00;99.90
9776;DHT22;4927;52.472;13.108;2023-10-08T06:15:06;11.00;99.90
9776;DHT22;4927;52.472;13.108;2023-10-08T06:16:08;11.00;99.90
9776;DHT22;4927;52.472;13.108;2023-10-08T06:17:10;11.00;99.90
9776;DHT22;4927;52.472;13.108;2023-10-08T06:18:15;11.00;99.90
9776;DHT22;4927;52.472;13.108;2023-10-08T06:19:17;11.10;99.90
9776;DHT22;4927;52.472;13.108;2023-10-08T06:20:19;11.10;99.90
9776;DHT22;4927;52.472;13.108;2023-10-08T06:21:21;11.10;99.90
9776;DHT22;4927;52.472;13.108;2023-10-08T06:22:22;11.10;99.90
9776;DHT22;4927;52.472;13.108;2023-10-08T06:23:25;11.10;99.90
9776;DHT22;4927;52.472;13.108;2023-10-08T06:24:26;11.10;99.90
9776;DHT22;4927;52.472;13.108;2023-10-08T06:25:28;11.20;99.90
9776;DHT22;4927;52.472;13.108;2023-10-08T06:26:30;11.20;99.90
9776;DHT22;4927;52.472;13.108;2023-10-08T06:27:32;11.20;99.90
9776;DHT22;4927;52.472;13.108;2023-10-08T06:28:34;11.20;99.90
9776;DHT22;4927;52.472;13.108;2023-10-08T06:29:36;11.20;99.90
9776;DHT22;4927;52.472;13.108;2023-10-08T06:30:39;11.20;99.90
9776;DHT22;4927;52.472;13.108;2023-10-08T06:31:40;11.20;99.90
9776;DHT22;4927;52.472;13.108;2023-10-08T06:32:43;11.20;99.90
9776;DHT22;4927;52.472;13.108;2023-10-08T06:33:45;11.10;99.90
9776;DHT22;4927;52.472;13.108;2023-10-08T06:34:54;11.10;99.90
9776;DHT22;4927;52.472;13.108;2023-10-08T06:35:56;11.10;99.90
9776;DHT22;4927;52.472;13.108;2023-10-08T06:37:03;11.10;99.90
9776;DHT22;4927;52.472;13.108;2023-10-08T06:38:05;11.10;99.90
9776;DHT22;4927;52.472;13.108;2023-10-08T06:39:09;11.10;99.90
9776;DHT22;4927;52.472;13.108;2023-10-08T06:40:11;11.10;99.90
9776;DHT22;4927;52.472;13.108;2023-10-08T06:41:13;11.10;99.90
9776;DHT22;4927;52.472;13.108;2023-10-08T06:42:25;11.10;99.90
9776;DHT22;4927;52.472;13.108;2023-10-08T06:43:27;11.10;99.90
9776;DHT22;4927;52.472;13.108;2023-10-08T06:44:29;11.10;99.90
9776;DHT22;4927;52.472;13.108;2023-10-08T06:45:31;11.20;99.90
9776;DHT22;4927;52.472;13.108;2023-10-08T06:46:33;11.20;99.90
9776;DHT22;4927;52.472;13.108;2023-10-08T06:47:35;11.20;99.90